sensor_id;sensor_type;location;lat;lon;timestamp;temperature;humidity
26589;DHT22;14235;48.532;8.722;2023-02-27T00:01:28;-0.40;99.90
26589;DHT22;14235;48.532;8.722;2023-02-27T00:03:55;-0.70;99.90
26589;DHT22;14235;48.532;8.722;2023-02-27T00:06:21;-0.30;99.90
26589;DHT22;14235;48.532;8.722;2023-02-27T00:08:46;-0.30;99.90
26589;DHT22;14235;48.532;8.722;2023-02-27T00:11:12;-0.50;99.90
26589;DHT22;14235;48.532;8.722;2023-02-27T00:13:38;-0.50;99.90
26589;DHT22;14235;48.532;8.722;2023-02-27T00:16:04;-0.50;99.90
26589;DHT22;14235;48.532;8.722;2023-02-27T00:18:30;-0.50;99.90
26589;DHT22;14235;48.532;8.722;2023-02-27T00:20:56;-0.60;99.90
26589;DHT22;14235;48.532;8.722;2023-02-27T00:23:21;-0.60;99.90
26589;DHT22;14235;48.532;8.722;2023-02-27T00:25:47;-0.60;99.90
26589;DHT22;14235;48.532;8.722;2023-02-27T00:28:12;-0.70;99.90
26589;DHT22;14235;48.532;8.722;2023-02-27T00:30:38;-0.60;99.90
26589;DHT22;14235;48.532;8.722;2023-02-27T00:33:04;-0.60;99.90
26589;DHT22;14235;48.532;8.722;2023-02-27T00:35:29;-0.70;99.90
26589;DHT22;14235;48.532;8.722;2023-02-27T00:37:55;-0.50;99.90
26589;DHT22;14235;48.532;8.722;2023-02-27T00:40:20;-0.40;99.90
26589;DHT22;14235;48.532;8.722;2023-02-27T00:42:50;-0.60;99.90
26589;DHT22;14235;48.532;8.722;2023-02-27T00:45:16;-0.60;99.90
26589;DHT22;14235;48.532;8.722;2023-02-27T00:47:41;-0.50;99.90
26589;DHT22;14235;48.532;8.722;2023-02-27T00:50:08;-0.50;99.90
26589;DHT22;14235;48.532;8.722;2023-02-27T00:52:33;-0.60;99.90
26589;DHT22;14235;48.532;8.722;2023-02-27T00:54:59;-0.60;99.90
26589;DHT22;14235;48.532;8.722;2023-02-27T00:57:25;-0.60;99.90
26589;DHT22;14235;48.532;8.722;2023-02-27T00:59:51;-0.60;99.90
26589;DHT22;14235;48.532;8.722;2023-02-27T01:02:17;-0.60;99.90
26589;DHT22;14235;48.532;8.722;2023-02-27T01:04:43;-0.80;99.90
26589;DHT22;14235;48.532;8.722;2023-02-27T01:07:08;-0.80;99.90
26589;DHT22;14235;48.532;8.722;2023-02-27T01:09:34;-0.80;99.90
26589;DHT22;14235;48.532;8.722;2023-02-27T01:12:00;-0.70;99.90
26589;DHT22;14235;48.532;8.722;2023-02-27T01:14:26;-0.70;99.90
26589;DHT22;14235;48.532;8.722;2023-02-27T01:16:52;-0.70;99.90
26589;DHT22;14235;48.532;8.722;2023-02-27T01:19:17;-0.70;99.90
26589;DHT22;14235;48.532;8.722;2023-02-27T01:21:43;-0.60;99.90
26589;DHT22;14235;48.532;8.722;2023-02-27T01:24:09;-0.70;99.90
26589;DHT22;14235;48.532;8.722;2023-02-27T01:26:35;-0.60;99.90
26589;DHT22;14235;48.532;8.722;2023-02-27T01:29:01;-0.60;99.90
26589;DHT22;14235;48.532;8.722;2023-02-27T01:31:27;-1.10;99.90
26589;DHT22;14235;48.532;8.722;2023-02-27T01:33:52;-0.60;99.90
26589;DHT22;14235;48.532;8.722;2023-02-27T01:36:18;-0.60;99.90
26589;DHT22;14235;48.532;8.722;2023-02-27T01:38:44;-0.60;99.90
26589;DHT22;14235;48.532;8.722;2023-02-27T01:41:10;-0.60;99.90
26589;DHT22;14235;48.532;8.722;2023-02-27T01:44:02;-0.70;99.90
26589;DHT22;14235;48.532;8.722;2023-02-27T01:46:29;-0.80;99.90
26589;DHT22;14235;48.532;8.722;2023-02-27T01:49:14;-0.90;99.90
26589;DHT22;14235;48.532;8.722;2023-02-27T01:51:47;-0.70;99.90
26589;DHT22;14235;48.532;8.722;2023-02-27T01:54:17;-0.90;99.90
26589;DHT22;14235;48.532;8.722;2023-02-27T01:56:43;-0.90;99.90
26589;DHT22;14235;48.532;8.722;2023-02-27T01:59:10;-0.90;99.90
26589;DHT22;14235;48.532;8.722;2023-02-27T02:01:36;-0.90;99.90
26589;DHT22;14235;48.532;8.722;2023-02-27T02:06:37;-0.80;99.90
26589;DHT22;14235;48.532;8.722;2023-02-27T02:09:04;1.30;99.90
26589;DHT22;14235;48.532;8.722;2023-02-27T02:11:31;-0.90;99.90
26589;DHT22;14235;48.532;8.722;2023-02-27T02:13:58;-0.90;99.90
26589;DHT22;14235;48.532;8.722;2023-02-27T02:22:17;-0.90;99.90
26589;DHT22;14235;48.532;8.722;2023-02-27T02:40:55;-0.80;99.90
26589;DHT22;14235;48.532;8.722;2023-02-27T02:48:54;-1.00;99.90
26589;DHT22;14235;48.532;8.722;2023-02-27T02:51:39;-1.10;99.90
26589;DHT22;14235;48.532;8.722;2023-02-27T02:54:19;-0.90;99.90
26589;DHT22;14235;48.532;8.722;2023-02-27T02:56:59;-0.90;99.90
26589;DHT22;14235;48.532;8.722;2023-02-27T02:59:31;-1.10;99.90
26589;DHT22;14235;48.532;8.722;2023-02-27T03:02:08;-1.10;99.90
26589;DHT22;14235;48.532;8.722;2023-02-27T03:04:45;-1.10;99.90
26589;DHT22;14235;48.532;8.722;2023-02-27T03:07:37;-1.00;99.90
26589;DHT22;14235;48.532;8.722;2023-02-27T03:12:32;-1.10;99.90
26589;DHT22;14235;48.532;8.722;2023-02-27T03:15:14;-1.10;99.90
26589;DHT22;14235;48.532;8.722;2023-02-27T03:17:43;-1.00;99.90
26589;DHT22;14235;48.532;8.722;2023-02-27T03:20:16;-1.20;99.90
26589;DHT22;14235;48.532;8.722;2023-02-27T03:22:46;-0.90;99.90
26589;DHT22;14235;48.532;8.722;2023-02-27T03:25:13;-1.20;99.90
26589;DHT22;14235;48.532;8.722;2023-02-27T03:27:50;-1.10;99.90
26589;DHT22;14235;48.532;8.722;2023-02-27T03:30:29;-1.00;99.90
26589;DHT22;14235;48.532;8.722;2023-02-27T03:33:04;-1.00;99.90
26589;DHT22;14235;48.532;8.722;2023-02-27T03:35:54;-1.10;99.90
26589;DHT22;14235;48.532;8.722;2023-02-27T03:38:42;-1.10;99.90
26589;DHT22;14235;48.532;8.722;2023-02-27T03:41:41;-1.10;99.90
26589;DHT22;14235;48.532;8.722;2023-02-27T03:44:30;-1.00;99.90
26589;DHT22;14235;48.532;8.722;2023-02-27T03:46:58;-1.10;99.90
26589;DHT22;14235;48.532;8.722;2023-02-27T03:49:24;-1.20;99.90
26589;DHT22;14235;48.532;8.722;2023-02-27T03:51:50;-1.20;99.90
26589;DHT22;14235;48.532;8.722;2023-02-27T03:54:23;-1.10;99.90
26589;DHT22;14235;48.532;8.722;2023-02-27T03:57:03;-1.20;99.90
26589;DHT22;14235;48.532;8.722;2023-02-27T03:59:30;-1.10;99.90
26589;DHT22;14235;48.532;8.722;2023-02-27T04:01:57;-1.20;99.90
26589;DHT22;14235;48.532;8.722;2023-02-27T04:04:24;-1.30;99.90
26589;DHT22;14235;48.532;8.722;2023-02-27T04:07:15;-1.20;99.90
26589;DHT22;14235;48.532;8.722;2023-02-27T04:19:01;-1.20;99.90
26589;DHT22;14235;48.532;8.722;2023-02-27T04:21:48;-1.20;99.90
26589;DHT22;14235;48.532;8.722;2023-02-27T04:24:33;-1.10;99.90
26589;DHT22;14235;48.532;8.722;2023-02-27T04:32:16;-1.20;99.90
26589;DHT22;14235;48.532;8.722;2023-02-27T04:34:54;-1.30;99.90
26589;DHT22;14235;48.532;8.722;2023-02-27T04:37:32;-1.30;99.90
26589;DHT22;14235;48.532;8.722;2023-02-27T04:40:07;-1.50;99.90
26589;DHT22;14235;48.532;8.722;2023-02-27T04:42:38;-1.30;99.90
26589;DHT22;14235;48.532;8.722;2023-02-27T04:45:08;-1.40;99.90
26589;DHT22;14235;48.532;8.722;2023-02-27T04:47:40;-1.30;99.90
26589;DHT22;14235;48.532;8.722;2023-02-27T04:50:16;-1.20;99.90
26589;DHT22;14235;48.532;8.722;2023-02-27T04:52:51;-1.30;99.90
26589;DHT22;14235;48.532;8.722;2023-02-27T04:55:29;-1.40;99.90
26589;DHT22;14235;48.532;8.722;2023-02-27T04:58:09;-1.40;99.90
26589;DHT22;14235;48.532;8.722;2023-02-27T05:00:36;-1.50;99.90
26589;DHT22;14235;48.532;8.722;2023-02-27T05:03:14;-1.50;99.90
26589;DHT22;14235;48.532;8.722;2023-02-27T05:05:42;-1.30;99.90
26589;DHT22;14235;48.532;8.722;2023-02-27T05:08:41;-1.50;99.90
26589;DHT22;14235;48.532;8.722;2023-02-27T05:13:46;-1.40;99.90
26589;DHT22;14235;48.532;8.722;2023-02-27T05:16:22;-1.30;99.90
26589;DHT22;14235;48.532;8.722;2023-02-27T05:18:51;-1.30;99.90
26589;DHT22;14235;48.532;8.722;2023-02-27T05:24:09;-1.40;99.90
26589;DHT22;14235;48.532;8.722;2023-02-27T05:26:53;-1.40;99.90
26589;DHT22;14235;48.532;8.722;2023-02-27T05:29:27;-1.40;99.90
26589;DHT22;14235;48.532;8.722;2023-02-27T05:37:45;-1.30;99.90
26589;DHT22;14235;48.532;8.722;2023-02-27T05:40:21;-1.30;99.90
26589;DHT22;14235;48.532;8.722;2023-02-27T05:43:11;-1.30;99.90
26589;DHT22;14235;48.532;8.722;2023-02-27T05:45:44;-1.30;99.90
26589;DHT22;14235;48.532;8.722;2023-02-27T05:48:14;-1.30;99.90
26589;DHT22;14235;48.532;8.722;2023-02-27T05:50:43;-1.30;99.90
26589;DHT22;14235;48.532;8.722;2023-02-27T05:53:14;-1.30;99.90
26589;DHT22;14235;48.532;8.722;2023-02-27T05:55:46;-1.30;99.90
26589;DHT22;14235;48.532;8.722;2023-02-27T05:58:22;-1.30;99.90
26589;DHT22;14235;48.532;8.722;2023-02-27T06:00:57;-1.10;99.90
26589;DHT22;14235;48.532;8.722;2023-02-27T06:03:25;-1.30;99.90
26589;DHT22;14235;48.532;8.722;2023-02-27T06:05:52;-1.40;99.90
26589;DHT22;14235;48.532;8.722;2023-02-27T06:08:19;-1.40;99.90
26589;DHT22;14235;48.532;8.722;2023-02-27T06:10:45;-1.40;99.90
26589;DHT22;14235;48.532;8.722;2023-02-27T06:13:10;-1.40;99.90
26589;DHT22;14235;48.532;8.722;2023-02-27T06:15:36;-1.40;99.90
26589;DHT22;14235;48.532;8.722;2023-02-27T06:18:02;-1.50;99.90
26589;DHT22;14235;48.532;8.722;2023-02-27T06:20:28;-1.40;99.90
26589;DHT22;14235;48.532;8.722;2023-02-27T06:22:53;-1.40;99.90
26589;DHT22;14235;48.532;8.722;2023-02-27T06:25:19;-1.40;99.90
26589;DHT22;14235;48.532;8.722;2023-02-27T06:27:46;-1.40;99.90
26589;DHT22;14235;48.532;8.722;2023-02-27T06:30:12;-1.40;99.90
26589;DHT22;14235;48.532;8.722;2023-02-27T06:32:38;-1.30;99.90
26589;DHT22;14235;48.532;8.722;2023-02-27T06:35:04;-1.40;99.90
26589;DHT22;14235;48.532;8.722;2023-02-27T06:37:30;-1.30;99.90
26589;DHT22;14235;48.532;8.722;2023-02-27T06:39:56;-1.40;99.90
26589;DHT22;14235;48.532;8.722;2023-02-27T06:42:22;-1.40;99.90
26589;DHT22;14235;48.532;8.722;2023-02-27T06:44:48;-1.40;99.90
26589;DHT22;14235;48.532;8.722;2023-02-27T06:47:14;-1.40;99.90
26589;DHT22;14235;48.532;8.722;2023-02-27T06:49:39;-1.40;99.90
26589;DHT22;14235;48.532;8.722;2023-02-27T06:52:05;-1.40;99.90
26589;DHT22;14235;48.532;8.722;2023-02-27T06:54:31;-1.40;99.90
26589;DHT22;14235;48.532;8.722;2023-02-27T06:56:56;-1.40;99.90
26589;DHT22;14235;48.532;8.722;2023-02-27T06:59:22;-1.40;99.90
26589;DHT22;14235;48.532;8.722;2023-02-27T07:01:47;-1.40;99.90
26589;DHT22;14235;48.532;8.722;2023-02-27T07:04:14;-1.40;99.90
26589;DHT22;14235;48.532;8.722;2023-02-27T07:06:40;-1.40;99.90
26589;DHT22;14235;48.532;8.722;2023-02-27T07:09:06;-1.50;99.90
26589;DHT22;14235;48.532;8.722;2023-02-27T07:11:31;-1.40;99.90
26589;DHT22;14235;48.532;8.722;2023-02-27T07:13:57;-1.40;99.90
26589;DHT22;14235;48.532;8.722;2023-02-27T07:16:22;-1.60;99.90
26589;DHT22;14235;48.532;8.722;2023-02-27T07:18:48;-1.50;99.90
26589;DHT22;14235;48.532;8.722;2023-02-27T07:21:13;-1.30;99.90
26589;DHT22;14235;48.532;8.722;2023-02-27T07:23:42;-1.50;99.90
26589;DHT22;14235;48.532;8.722;2023-02-27T07:26:08;-1.50;99.90
26589;DHT22;14235;48.532;8.722;2023-02-27T07:28:34;-1.40;99.90
26589;DHT22;14235;48.532;8.722;2023-02-27T07:30:59;-1.40;99.90
26589;DHT22;14235;48.532;8.722;2023-02-27T07:33:25;-1.40;99.90
26589;DHT22;14235;48.532;8.722;2023-02-27T07:35:50;-1.40;99.90
26589;DHT22;14235;48.532;8.722;2023-02-27T07:38:16;-1.30;99.90
26589;DHT22;14235;48.532;8.722;2023-02-27T07:40:46;-1.30;99.90
26589;DHT22;14235;48.532;8.722;2023-02-27T07:43:12;-1.20;99.90
26589;DHT22;14235;48.532;8.722;2023-02-27T07:45:38;-1.20;99.90
26589;DHT22;14235;48.532;8.722;2023-02-27T07:48:03;-1.20;99.90
26589;DHT22;14235;48.532;8.722;2023-02-27T07:50:29;-1.10;99.90
26589;DHT22;14235;48.532;8.722;2023-02-27T07:52:54;-1.20;99.90
26589;DHT22;14235;48.532;8.722;2023-02-27T07:55:20;-1.20;99.90
26589;DHT22;14235;48.532;8.722;2023-02-27T07:57:46;-1.20;99.90
26589;DHT22;14235;48.532;8.722;2023-02-27T08:00:12;-1.10;99.90
26589;DHT22;14235;48.532;8.722;2023-02-27T08:02:38;-1.00;99.90
26589;DHT22;14235;48.532;8.722;2023-02-27T08:05:04;-1.00;99.90
26589;DHT22;14235;48.532;8.722;2023-02-27T08:07:30;-1.00;99.90
26589;DHT22;14235;48.532;8.722;2023-02-27T08:09:56;-0.90;99.90
26589;DHT22;14235;48.532;8.722;2023-02-27T08:12:21;-0.90;99.90
26589;DHT22;14235;48.532;8.722;2023-02-27T08:14:47;-0.80;99.90
26589;DHT22;14235;48.532;8.722;2023-02-27T08:17:13;-0.80;99.90
26589;DHT22;14235;48.532;8.722;2023-02-27T08:19:38;-0.70;99.90
26589;DHT22;14235;48.532;8.722;2023-02-27T08:22:05;-0.60;99.90
26589;DHT22;14235;48.532;8.722;2023-02-27T08:24:31;-0.60;99.90
26589;DHT22;14235;48.532;8.722;2023-02-27T08:26:56;-0.50;99.90
26589;DHT22;14235;48.532;8.722;2023-02-27T08:29:22;-0.50;99.90
26589;DHT22;14235;48.532;8.722;2023-02-27T08:31:48;-0.40;99.90
26589;DHT22;14235;48.532;8.722;2023-02-27T08:34:13;-0.10;99.90
26589;DHT22;14235;48.532;8.722;2023-02-27T08:36:39;-0.40;99.90
26589;DHT22;14235;48.532;8.722;2023-02-27T08:39:06;-0.30;99.90
26589;DHT22;14235;48.532;8.722;2023-02-27T08:41:32;-0.20;99.90
26589;DHT22;14235;48.532;8.722;2023-02-27T08:43:58;-0.30;99.90
26589;DHT22;14235;48.532;8.722;2023-02-27T08:46:23;-0.20;99.90
26589;DHT22;14235;48.532;8.722;2023-02-27T08:48:49;-0.20;99.90
26589;DHT22;14235;48.532;8.722;2023-02-27T08:51:14;-0.10;99.90
26589;DHT22;14235;48.532;8.722;2023-02-27T08:53:40;0.00;99.90
26589;DHT22;14235;48.532;8.722;2023-02-27T08:56:06;0.10;99.90
26589;DHT22;14235;48.532;8.722;2023-02-27T08:58:31;0.00;99.90
26589;DHT22;14235;48.532;8.722;2023-02-27T09:00:57;0.10;99.90
26589;DHT22;14235;48.532;8.722;2023-02-27T09:03:23;0.20;99.90
26589;DHT22;14235;48.532;8.722;2023-02-27T09:05:53;0.10;99.90
26589;DHT22;14235;48.532;8.722;2023-02-27T09:08:19;0.30;99.90
26589;DHT22;14235;48.532;8.722;2023-02-27T09:10:45;0.20;99.90
26589;DHT22;14235;48.532;8.722;2023-02-27T09:13:11;0.30;99.90
26589;DHT22;14235;48.532;8.722;2023-02-27T09:15:36;0.30;99.90
26589;DHT22;14235;48.532;8.722;2023-02-27T09:18:03;0.30;99.90
26589;DHT22;14235;48.532;8.722;2023-02-27T09:20:32;0.50;99.90
26589;DHT22;14235;48.532;8.722;2023-02-27T09:23:00;0.50;99.90
26589;DHT22;14235;48.532;8.722;2023-02-27T09:25:26;0.50;99.90
26589;DHT22;14235;48.532;8.722;2023-02-27T09:27:51;0.60;99.90
26589;DHT22;14235;48.532;8.722;2023-02-27T09:30:17;0.60;99.90
26589;DHT22;14235;48.532;8.722;2023-02-27T09:35:09;0.70;99.90
26589;DHT22;14235;48.532;8.722;2023-02-27T09:37:35;0.70;99.90
26589;DHT22;14235;48.532;8.722;2023-02-27T09:40:00;0.80;99.90
26589;DHT22;14235;48.532;8.722;2023-02-27T09:42:35;0.80;99.90
26589;DHT22;14235;48.532;8.722;2023-02-27T09:45:04;0.80;99.90
26589;DHT22;14235;48.532;8.722;2023-02-27T09:50:06;0.90;99.90
26589;DHT22;14235;48.532;8.722;2023-02-27T09:52:35;1.00;99.90
26589;DHT22;14235;48.532;8.722;2023-02-27T09:55:05;1.00;99.90
26589;DHT22;14235;48.532;8.722;2023-02-27T10:00:47;1.20;99.90
26589;DHT22;14235;48.532;8.722;2023-02-27T10:06:26;1.40;99.90
26589;DHT22;14235;48.532;8.722;2023-02-27T10:11:52;1.50;99.90
26589;DHT22;14235;48.532;8.722;2023-02-27T10:14:51;1.60;99.90
26589;DHT22;14235;48.532;8.722;2023-02-27T10:17:32;1.50;99.90
26589;DHT22;14235;48.532;8.722;2023-02-27T10:20:02;1.80;99.90
26589;DHT22;14235;48.532;8.722;2023-02-27T10:22:35;1.80;99.90
26589;DHT22;14235;48.532;8.722;2023-02-27T10:25:16;1.90;99.90
26589;DHT22;14235;48.532;8.722;2023-02-27T10:27:47;2.30;99.90
26589;DHT22;14235;48.532;8.722;2023-02-27T10:30:23;2.00;99.90
26589;DHT22;14235;48.532;8.722;2023-02-27T10:33:05;2.10;99.90
26589;DHT22;14235;48.532;8.722;2023-02-27T10:35:38;2.10;99.90
26589;DHT22;14235;48.532;8.722;2023-02-27T10:38:40;2.10;99.90
26589;DHT22;14235;48.532;8.722;2023-02-27T10:41:10;2.10;99.90
26589;DHT22;14235;48.532;8.722;2023-02-27T10:43:37;2.10;99.90
26589;DHT22;14235;48.532;8.722;2023-02-27T10:46:13;2.10;99.90
26589;DHT22;14235;48.532;8.722;2023-02-27T10:48:39;2.20;99.90
26589;DHT22;14235;48.532;8.722;2023-02-27T10:53:50;2.50;99.90
26589;DHT22;14235;48.532;8.722;2023-02-27T10:56:26;2.30;99.90
26589;DHT22;14235;48.532;8.722;2023-02-27T11:22:05;3.10;99.90
26589;DHT22;14235;48.532;8.722;2023-02-27T11:24:31;3.20;99.90
26589;DHT22;14235;48.532;8.722;2023-02-27T11:26:59;3.20;99.90
26589;DHT22;14235;48.532;8.722;2023-02-27T11:29:27;3.30;99.90
26589;DHT22;14235;48.532;8.722;2023-02-27T11:31:58;3.40;99.90
26589;DHT22;14235;48.532;8.722;2023-02-27T11:34:28;3.40;99.90
26589;DHT22;14235;48.532;8.722;2023-02-27T11:37:04;3.50;99.70
26589;DHT22;14235;48.532;8.722;2023-02-27T11:39:36;3.50;99.30
26589;DHT22;14235;48.532;8.722;2023-02-27T11:47:37;3.40;99.10
26589;DHT22;14235;48.532;8.722;2023-02-27T11:50:15;3.40;99.40
26589;DHT22;14235;48.532;8.722;2023-02-27T11:55:16;3.50;98.60
26589;DHT22;14235;48.532;8.722;2023-02-27T11:57:47;3.60;98.30
26589;DHT22;14235;48.532;8.722;2023-02-27T12:00:38;3.50;98.40
26589;DHT22;14235;48.532;8.722;2023-02-27T12:05:50;3.50;98.50
26589;DHT22;14235;48.532;8.722;2023-02-27T12:08:33;3.40;98.70
26589;DHT22;14235;48.532;8.722;2023-02-27T12:13:30;3.40;98.30
26589;DHT22;14235;48.532;8.722;2023-02-27T12:18:47;3.30;98.30
26589;DHT22;14235;48.532;8.722;2023-02-27T12:21:18;3.30;98.10
26589;DHT22;14235;48.532;8.722;2023-02-27T12:24:01;3.30;98.50
26589;DHT22;14235;48.532;8.722;2023-02-27T12:26:31;3.40;98.30
26589;DHT22;14235;48.532;8.722;2023-02-27T12:29:37;3.30;98.20
26589;DHT22;14235;48.532;8.722;2023-02-27T12:32:32;3.40;98.60
26589;DHT22;14235;48.532;8.722;2023-02-27T12:35:11;3.40;98.50
26589;DHT22;14235;48.532;8.722;2023-02-27T12:37:38;3.50;98.80
26589;DHT22;14235;48.532;8.722;2023-02-27T12:40:04;3.40;98.70
26589;DHT22;14235;48.532;8.722;2023-02-27T12:48:15;3.60;98.70
26589;DHT22;14235;48.532;8.722;2023-02-27T12:50:52;3.50;98.10
26589;DHT22;14235;48.532;8.722;2023-02-27T12:53:54;3.40;97.60
26589;DHT22;14235;48.532;8.722;2023-02-27T12:56:25;3.40;97.50
26589;DHT22;14235;48.532;8.722;2023-02-27T12:59:06;3.20;97.50
26589;DHT22;14235;48.532;8.722;2023-02-27T13:04:36;3.00;97.80
26589;DHT22;14235;48.532;8.722;2023-02-27T13:07:03;3.00;97.60
26589;DHT22;14235;48.532;8.722;2023-02-27T13:15:27;3.50;97.70
26589;DHT22;14235;48.532;8.722;2023-02-27T13:18:08;3.50;97.20
26589;DHT22;14235;48.532;8.722;2023-02-27T13:20:47;3.70;97.30
26589;DHT22;14235;48.532;8.722;2023-02-27T13:23:25;3.70;98.10
26589;DHT22;14235;48.532;8.722;2023-02-27T13:25:52;3.70;97.70
26589;DHT22;14235;48.532;8.722;2023-02-27T13:28:23;3.80;97.20
26589;DHT22;14235;48.532;8.722;2023-02-27T13:31:18;3.80;95.20
26589;DHT22;14235;48.532;8.722;2023-02-27T13:33:51;3.80;95.80
26589;DHT22;14235;48.532;8.722;2023-02-27T13:36:23;3.70;95.30
26589;DHT22;14235;48.532;8.722;2023-02-27T13:38:54;3.80;95.60
26589;DHT22;14235;48.532;8.722;2023-02-27T13:43:50;3.80;95.40
26589;DHT22;14235;48.532;8.722;2023-02-27T13:46:31;3.90;95.70
26589;DHT22;14235;48.532;8.722;2023-02-27T13:51:39;4.00;95.10
26589;DHT22;14235;48.532;8.722;2023-02-27T13:59:24;4.00;95.10
26589;DHT22;14235;48.532;8.722;2023-02-27T14:01:55;3.90;95.00
26589;DHT22;14235;48.532;8.722;2023-02-27T14:04:25;3.80;95.30
26589;DHT22;14235;48.532;8.722;2023-02-27T14:06:57;3.70;95.60
26589;DHT22;14235;48.532;8.722;2023-02-27T14:09:24;3.80;95.50
26589;DHT22;14235;48.532;8.722;2023-02-27T14:11:56;3.70;95.50
26589;DHT22;14235;48.532;8.722;2023-02-27T14:14:45;3.60;95.60
26589;DHT22;14235;48.532;8.722;2023-02-27T14:17:13;3.70;95.90
26589;DHT22;14235;48.532;8.722;2023-02-27T14:19:58;3.50;95.60
26589;DHT22;14235;48.532;8.722;2023-02-27T14:22:35;3.50;95.60
26589;DHT22;14235;48.532;8.722;2023-02-27T14:25:11;3.60;95.70
26589;DHT22;14235;48.532;8.722;2023-02-27T14:27:48;3.50;95.60
26589;DHT22;14235;48.532;8.722;2023-02-27T14:30:36;3.30;95.50
26589;DHT22;14235;48.532;8.722;2023-02-27T14:35:46;3.30;95.30
26589;DHT22;14235;48.532;8.722;2023-02-27T14:38:16;3.30;95.20
26589;DHT22;14235;48.532;8.722;2023-02-27T14:40:55;3.20;95.20
26589;DHT22;14235;48.532;8.722;2023-02-27T14:43:38;3.20;95.30
26589;DHT22;14235;48.532;8.722;2023-02-27T14:46:37;3.40;96.00
26589;DHT22;14235;48.532;8.722;2023-02-27T14:49:06;3.40;95.80
26589;DHT22;14235;48.532;8.722;2023-02-27T14:51:34;3.20;96.00
26589;DHT22;14235;48.532;8.722;2023-02-27T14:54:24;3.20;95.60
26589;DHT22;14235;48.532;8.722;2023-02-27T14:56:58;3.30;95.60
26589;DHT22;14235;48.532;8.722;2023-02-27T14:59:42;3.10;95.50
26589;DHT22;14235;48.532;8.722;2023-02-27T15:04:55;3.00;95.60
26589;DHT22;14235;48.532;8.722;2023-02-27T15:07:37;3.00;95.40
26589;DHT22;14235;48.532;8.722;2023-02-27T15:10:07;2.90;95.40
26589;DHT22;14235;48.532;8.722;2023-02-27T15:12:38;3.20;95.90
26589;DHT22;14235;48.532;8.722;2023-02-27T15:15:05;3.00;95.50
26589;DHT22;14235;48.532;8.722;2023-02-27T15:17:40;3.10;95.50
26589;DHT22;14235;48.532;8.722;2023-02-27T15:20:29;3.10;95.60
26589;DHT22;14235;48.532;8.722;2023-02-27T15:22:59;3.10;95.50
26589;DHT22;14235;48.532;8.722;2023-02-27T15:27:54;3.10;96.20
26589;DHT22;14235;48.532;8.722;2023-02-27T15:30:21;2.90;96.60
26589;DHT22;14235;48.532;8.722;2023-02-27T15:32:46;3.10;96.20
26589;DHT22;14235;48.532;8.722;2023-02-27T15:35:23;3.00;95.80
26589;DHT22;14235;48.532;8.722;2023-02-27T15:37:57;3.00;95.90
26589;DHT22;14235;48.532;8.722;2023-02-27T15:40:26;2.90;95.50
26589;DHT22;14235;48.532;8.722;2023-02-27T15:42:53;2.90;95.70
26589;DHT22;14235;48.532;8.722;2023-02-27T15:45:25;2.90;95.70
26589;DHT22;14235;48.532;8.722;2023-02-27T15:47:51;3.00;96.00
26589;DHT22;14235;48.532;8.722;2023-02-27T15:52:50;3.00;96.00
26589;DHT22;14235;48.532;8.722;2023-02-27T15:55:25;2.90;95.90
26589;DHT22;14235;48.532;8.722;2023-02-27T15:57:51;2.90;96.40
26589;DHT22;14235;48.532;8.722;2023-02-27T16:00:18;2.80;96.50
26589;DHT22;14235;48.532;8.722;2023-02-27T16:02:50;2.90;96.40
26589;DHT22;14235;48.532;8.722;2023-02-27T16:05:19;2.80;96.90
26589;DHT22;14235;48.532;8.722;2023-02-27T16:07:46;2.80;97.00
26589;DHT22;14235;48.532;8.722;2023-02-27T16:10:28;2.70;97.00
26589;DHT22;14235;48.532;8.722;2023-02-27T16:12:55;2.70;96.90
26589;DHT22;14235;48.532;8.722;2023-02-27T16:15:27;2.70;97.00
26589;DHT22;14235;48.532;8.722;2023-02-27T16:18:00;2.70;97.30
26589;DHT22;14235;48.532;8.722;2023-02-27T16:20:47;2.70;97.50
26589;DHT22;14235;48.532;8.722;2023-02-27T16:23:29;2.70;97.70
26589;DHT22;14235;48.532;8.722;2023-02-27T16:29:31;2.80;97.70
26589;DHT22;14235;48.532;8.722;2023-02-27T16:35:05;2.70;97.60
26589;DHT22;14235;48.532;8.722;2023-02-27T16:38:15;2.70;97.50
26589;DHT22;14235;48.532;8.722;2023-02-27T16:41:18;2.70;97.70
26589;DHT22;14235;48.532;8.722;2023-02-27T16:44:13;2.70;97.70
26589;DHT22;14235;48.532;8.722;2023-02-27T16:46:44;2.70;97.50
26589;DHT22;14235;48.532;8.722;2023-02-27T16:49:27;2.60;97.20
26589;DHT22;14235;48.532;8.722;2023-02-27T16:52:01;2.60;97.60
26589;DHT22;14235;48.532;8.722;2023-02-27T16:54:38;2.50;97.60
26589;DHT22;14235;48.532;8.722;2023-02-27T16:57:08;2.70;97.80
26589;DHT22;14235;48.532;8.722;2023-02-27T16:59:44;2.50;97.90
26589;DHT22;14235;48.532;8.722;2023-02-27T17:02:12;2.60;98.40
26589;DHT22;14235;48.532;8.722;2023-02-27T17:04:42;2.50;98.20
26589;DHT22;14235;48.532;8.722;2023-02-27T17:07:25;2.40;96.90
26589;DHT22;14235;48.532;8.722;2023-02-27T17:10:01;2.40;97.00
26589;DHT22;14235;48.532;8.722;2023-02-27T17:12:33;2.30;96.80
26589;DHT22;14235;48.532;8.722;2023-02-27T17:18:36;2.30;96.70
26589;DHT22;14235;48.532;8.722;2023-02-27T17:21:09;2.30;96.70
26589;DHT22;14235;48.532;8.722;2023-02-27T17:23:58;2.30;96.70
26589;DHT22;14235;48.532;8.722;2023-02-27T17:26:30;2.20;96.40
26589;DHT22;14235;48.532;8.722;2023-02-27T17:29:16;2.30;96.90
26589;DHT22;14235;48.532;8.722;2023-02-27T17:31:45;2.20;96.30
26589;DHT22;14235;48.532;8.722;2023-02-27T17:34:13;2.20;96.40
26589;DHT22;14235;48.532;8.722;2023-02-27T17:36:51;2.20;96.90
26589;DHT22;14235;48.532;8.722;2023-02-27T17:39:20;2.20;96.70
26589;DHT22;14235;48.532;8.722;2023-02-27T17:41:50;2.20;96.60
26589;DHT22;14235;48.532;8.722;2023-02-27T17:44:21;2.20;96.10
26589;DHT22;14235;48.532;8.722;2023-02-27T17:46:57;2.20;96.50
26589;DHT22;14235;48.532;8.722;2023-02-27T17:49:46;2.10;96.30
26589;DHT22;14235;48.532;8.722;2023-02-27T17:52:23;2.10;95.80
26589;DHT22;14235;48.532;8.722;2023-02-27T17:54:49;2.10;95.90
26589;DHT22;14235;48.532;8.722;2023-02-27T17:57:15;2.10;95.90
26589;DHT22;14235;48.532;8.722;2023-02-27T17:59:41;2.00;95.80
26589;DHT22;14235;48.532;8.722;2023-02-27T18:02:12;1.90;96.10
26589;DHT22;14235;48.532;8.722;2023-02-27T18:04:38;2.50;96.00
26589;DHT22;14235;48.532;8.722;2023-02-27T18:07:04;2.00;95.50
26589;DHT22;14235;48.532;8.722;2023-02-27T18:09:30;2.00;95.20
26589;DHT22;14235;48.532;8.722;2023-02-27T18:11:55;2.00;95.00
26589;DHT22;14235;48.532;8.722;2023-02-27T18:14:22;1.90;95.10
26589;DHT22;14235;48.532;8.722;2023-02-27T18:16:48;1.80;95.40
26589;DHT22;14235;48.532;8.722;2023-02-27T18:19:14;2.20;95.20
26589;DHT22;14235;48.532;8.722;2023-02-27T18:21:40;2.00;95.30
26589;DHT22;14235;48.532;8.722;2023-02-27T18:24:12;1.80;95.10
26589;DHT22;14235;48.532;8.722;2023-02-27T18:26:38;2.00;95.10
26589;DHT22;14235;48.532;8.722;2023-02-27T18:29:10;1.90;94.80
26589;DHT22;14235;48.532;8.722;2023-02-27T18:31:38;1.90;94.90
26589;DHT22;14235;48.532;8.722;2023-02-27T18:34:05;1.70;95.20
26589;DHT22;14235;48.532;8.722;2023-02-27T18:36:31;1.90;95.00
26589;DHT22;14235;48.532;8.722;2023-02-27T18:38:57;1.90;95.00
26589;DHT22;14235;48.532;8.722;2023-02-27T18:41:23;2.10;95.60
26589;DHT22;14235;48.532;8.722;2023-02-27T18:43:49;2.00;95.10